sensor_id;sensor_type;location;lat;lon;timestamp;pressure;altitude;pressure_sealevel;temperature;humidity
829;BME280;396;52.558;13.188;2023-03-03T00:00:38;101800.72;;;1.07;99.45
829;BME280;396;52.558;13.188;2023-03-03T00:03:06;101817.53;;;1.01;99.14
829;BME280;396;52.558;13.188;2023-03-03T00:05:34;101807.09;;;0.80;99.90
829;BME280;396;52.558;13.188;2023-03-03T00:08:01;101825.34;;;0.89;99.83
829;BME280;396;52.558;13.188;2023-03-03T00:10:29;101821.25;;;0.73;100.00
829;BME280;396;52.558;13.188;2023-03-03T00:12:55;101812.63;;;0.78;100.00
829;BME280;396;52.558;13.188;2023-03-03T00:15:23;101814.28;;;0.86;100.00
829;BME280;396;52.558;13.188;2023-03-03T00:17:52;101817.16;;;0.78;100.00
829;BME280;396;52.558;13.188;2023-03-03T00:20:28;101820.00;;;0.69;100.00
829;BME280;396;52.558;13.188;2023-03-03T00:22:57;101801.38;;;0.76;100.00
829;BME280;396;52.558;13.188;2023-03-03T00:25:32;101791.50;;;0.90;100.00
829;BME280;396;52.558;13.188;2023-03-03T00:28:00;101799.50;;;0.90;100.00
829;BME280;396;52.558;13.188;2023-03-03T00:30:27;101792.94;;;0.79;100.00
829;BME280;396;52.558;13.188;2023-03-03T00:32:54;101792.94;;;0.72;100.00
829;BME280;396;52.558;13.188;2023-03-03T00:35:25;101798.50;;;0.71;100.00
829;BME280;396;52.558;13.188;2023-03-03T00:37:54;101801.16;;;0.71;100.00
829;BME280;396;52.558;13.188;2023-03-03T00:40:23;101790.50;;;0.71;100.00
829;BME280;396;52.558;13.188;2023-03-03T00:42:52;101797.88;;;0.69;100.00
829;BME280;396;52.558;13.188;2023-03-03T00:45:31;101799.50;;;0.50;100.00
829;BME280;396;52.558;13.188;2023-03-03T00:48:10;101790.88;;;0.61;100.00
829;BME280;396;52.558;13.188;2023-03-03T00:50:43;101792.34;;;0.64;100.00
829;BME280;396;52.558;13.188;2023-03-03T00:53:12;101790.69;;;0.63;100.00
829;BME280;396;52.558;13.188;2023-03-03T00:55:41;101791.31;;;0.65;100.00
829;BME280;396;52.558;13.188;2023-03-03T00:58:10;101791.50;;;0.63;100.00
829;BME280;396;52.558;13.188;2023-03-03T01:00:36;101792.34;;;0.64;100.00
829;BME280;396;52.558;13.188;2023-03-03T01:03:05;101774.91;;;0.68;100.00
829;BME280;396;52.558;13.188;2023-03-03T01:05:33;101768.56;;;0.75;100.00
829;BME280;396;52.558;13.188;2023-03-03T01:08:00;101784.75;;;0.67;100.00
829;BME280;396;52.558;13.188;2023-03-03T01:10:29;101782.28;;;0.72;100.00
829;BME280;396;52.558;13.188;2023-03-03T01:12:57;101784.31;;;0.70;100.00
829;BME280;396;52.558;13.188;2023-03-03T01:15:25;101780.22;;;0.74;100.00
829;BME280;396;52.558;13.188;2023-03-03T01:17:51;101783.53;;;0.63;99.98
829;BME280;396;52.558;13.188;2023-03-03T01:20:20;101782.69;;;0.63;100.00
829;BME280;396;52.558;13.188;2023-03-03T01:22:47;101770.00;;;0.71;100.00
829;BME280;396;52.558;13.188;2023-03-03T01:25:13;101777.56;;;0.74;100.00
829;BME280;396;52.558;13.188;2023-03-03T01:27:40;101779.81;;;0.78;99.36
829;BME280;396;52.558;13.188;2023-03-03T01:30:08;101760.94;;;0.72;99.09
829;BME280;396;52.558;13.188;2023-03-03T01:32:36;101768.75;;;0.67;99.64
829;BME280;396;52.558;13.188;2023-03-03T01:35:03;101769.38;;;0.63;99.53
829;BME280;396;52.558;13.188;2023-03-03T01:37:30;101761.19;;;0.58;99.50
829;BME280;396;52.558;13.188;2023-03-03T01:39:56;101758.50;;;0.58;100.00
829;BME280;396;52.558;13.188;2023-03-03T01:42:23;101751.94;;;0.60;99.49
829;BME280;396;52.558;13.188;2023-03-03T01:45:10;101743.94;;;0.60;99.06
829;BME280;396;52.558;13.188;2023-03-03T01:47:42;101746.63;;;0.54;99.66
829;BME280;396;52.558;13.188;2023-03-03T01:50:14;101747.63;;;0.59;98.80
829;BME280;396;52.558;13.188;2023-03-03T01:52:45;101733.50;;;0.59;98.64
829;BME280;396;52.558;13.188;2023-03-03T01:55:16;101733.28;;;0.54;97.62
829;BME280;396;52.558;13.188;2023-03-03T01:57:46;101731.63;;;0.59;98.17
829;BME280;396;52.558;13.188;2023-03-03T02:00:15;101742.72;;;0.63;98.97
829;BME280;396;52.558;13.188;2023-03-03T02:02:44;101732.25;;;0.61;99.43
829;BME280;396;52.558;13.188;2023-03-03T02:05:12;101747.84;;;0.64;99.52
829;BME280;396;52.558;13.188;2023-03-03T02:07:40;101736.53;;;0.69;97.98
829;BME280;396;52.558;13.188;2023-03-03T02:10:10;101751.72;;;0.68;97.75
829;BME280;396;52.558;13.188;2023-03-03T02:12:40;101755.22;;;0.69;97.12
829;BME280;396;52.558;13.188;2023-03-03T02:15:19;101749.25;;;0.73;97.85
829;BME280;396;52.558;13.188;2023-03-03T02:17:48;101760.13;;;0.79;98.01
829;BME280;396;52.558;13.188;2023-03-03T02:20:24;101756.44;;;0.66;98.84
829;BME280;396;52.558;13.188;2023-03-03T02:22:57;101756.44;;;0.66;99.47
829;BME280;396;52.558;13.188;2023-03-03T02:25:31;101752.75;;;0.54;100.00
829;BME280;396;52.558;13.188;2023-03-03T02:28:01;101752.94;;;0.66;100.00
829;BME280;396;52.558;13.188;2023-03-03T02:30:28;101754.59;;;0.67;100.00
829;BME280;396;52.558;13.188;2023-03-03T02:32:54;101762.19;;;0.70;100.00
829;BME280;396;52.558;13.188;2023-03-03T02:35:27;101752.13;;;0.65;99.47
829;BME280;396;52.558;13.188;2023-03-03T02:37:56;101753.97;;;0.65;100.00
829;BME280;396;52.558;13.188;2023-03-03T02:40:27;101760.31;;;0.57;100.00
829;BME280;396;52.558;13.188;2023-03-03T02:42:57;101755.22;;;0.62;100.00
829;BME280;396;52.558;13.188;2023-03-03T02:45:25;101766.09;;;0.67;100.00
829;BME280;396;52.558;13.188;2023-03-03T02:47:52;101759.53;;;0.63;100.00
829;BME280;396;52.558;13.188;2023-03-03T02:50:18;101761.56;;;0.61;100.00
829;BME280;396;52.558;13.188;2023-03-03T02:52:45;101752.75;;;0.47;100.00
829;BME280;396;52.558;13.188;2023-03-03T02:55:12;101756.88;;;0.37;100.00
829;BME280;396;52.558;13.188;2023-03-03T02:57:38;101755.22;;;0.36;100.00
829;BME280;396;52.558;13.188;2023-03-03T03:00:06;101753.75;;;0.40;100.00
829;BME280;396;52.558;13.188;2023-03-03T03:02:34;101751.53;;;0.37;100.00
829;BME280;396;52.558;13.188;2023-03-03T03:05:01;101758.50;;;0.38;100.00
829;BME280;396;52.558;13.188;2023-03-03T03:07:27;101762.59;;;0.34;100.00
829;BME280;396;52.558;13.188;2023-03-03T03:09:54;101761.38;;;0.36;100.00
829;BME280;396;52.558;13.188;2023-03-03T03:12:20;101753.56;;;0.35;100.00
829;BME280;396;52.558;13.188;2023-03-03T03:14:47;101758.50;;;0.31;100.00
829;BME280;396;52.558;13.188;2023-03-03T03:17:13;101767.06;;;0.27;100.00
829;BME280;396;52.558;13.188;2023-03-03T03:19:41;101774.03;;;0.21;100.00
829;BME280;396;52.558;13.188;2023-03-03T03:22:08;101777.53;;;0.21;100.00
829;BME280;396;52.558;13.188;2023-03-03T03:24:34;101782.88;;;0.28;100.00
829;BME280;396;52.558;13.188;2023-03-03T03:27:01;101782.88;;;0.35;100.00
829;BME280;396;52.558;13.188;2023-03-03T03:29:28;101781.66;;;0.37;100.00
829;BME280;396;52.558;13.188;2023-03-03T03:31:54;101779.81;;;0.38;100.00
829;BME280;396;52.558;13.188;2023-03-03T03:34:21;101784.75;;;0.41;100.00
829;BME280;396;52.558;13.188;2023-03-03T03:36:49;101787.59;;;0.39;100.00
829;BME280;396;52.558;13.188;2023-03-03T03:39:15;101781.44;;;0.39;100.00
829;BME280;396;52.558;13.188;2023-03-03T03:41:42;101784.75;;;0.41;100.00
829;BME280;396;52.558;13.188;2023-03-03T03:44:08;101772.03;;;0.36;100.00
829;BME280;396;52.558;13.188;2023-03-03T03:46:35;101770.19;;;0.37;100.00
829;BME280;396;52.558;13.188;2023-03-03T03:49:02;101767.06;;;0.27;100.00
829;BME280;396;52.558;13.188;2023-03-03T03:51:28;101772.63;;;0.18;100.00
829;BME280;396;52.558;13.188;2023-03-03T03:53:57;101764.22;;;0.35;100.00
829;BME280;396;52.558;13.188;2023-03-03T03:56:23;101756.44;;;0.40;100.00
829;BME280;396;52.558;13.188;2023-03-03T03:58:50;101760.97;;;0.46;100.00
829;BME280;396;52.558;13.188;2023-03-03T04:01:16;101756.84;;;0.57;100.00
829;BME280;396;52.558;13.188;2023-03-03T04:03:43;101754.78;;;0.52;100.00
829;BME280;396;52.558;13.188;2023-03-03T04:06:11;101751.09;;;0.53;100.00
829;BME280;396;52.558;13.188;2023-03-03T04:08:37;101751.94;;;0.47;100.00
829;BME280;396;52.558;13.188;2023-03-03T04:11:05;101745.38;;;0.56;100.00
829;BME280;396;52.558;13.188;2023-03-03T04:13:32;101752.56;;;0.62;100.00
829;BME280;396;52.558;13.188;2023-03-03T04:15:59;101745.38;;;0.63;100.00
829;BME280;396;52.558;13.188;2023-03-03T04:18:26;101738.59;;;0.60;100.00
829;BME280;396;52.558;13.188;2023-03-03T04:20:52;101742.09;;;0.61;100.00
829;BME280;396;52.558;13.188;2023-03-03T04:23:20;101731.84;;;0.58;100.00
829;BME280;396;52.558;13.188;2023-03-03T04:25:47;101735.72;;;0.62;100.00
829;BME280;396;52.558;13.188;2023-03-03T04:28:16;101737.16;;;0.64;100.00
829;BME280;396;52.558;13.188;2023-03-03T04:30:43;101733.47;;;0.65;100.00
829;BME280;396;52.558;13.188;2023-03-03T04:33:09;101733.47;;;0.52;100.00
829;BME280;396;52.558;13.188;2023-03-03T04:35:36;101739.00;;;0.57;100.00
829;BME280;396;52.558;13.188;2023-03-03T04:38:03;101722.81;;;0.52;100.00
829;BME280;396;52.558;13.188;2023-03-03T04:40:30;101732.25;;;0.35;100.00
829;BME280;396;52.558;13.188;2023-03-03T04:42:56;101742.72;;;0.43;100.00
829;BME280;396;52.558;13.188;2023-03-03T04:45:24;101735.53;;;0.43;100.00
829;BME280;396;52.558;13.188;2023-03-03T04:47:51;101742.91;;;0.48;100.00
829;BME280;396;52.558;13.188;2023-03-03T04:50:18;101744.34;;;0.44;100.00
829;BME280;396;52.558;13.188;2023-03-03T04:52:45;101750.91;;;0.35;100.00
829;BME280;396;52.558;13.188;2023-03-03T04:55:11;101744.56;;;0.22;100.00
829;BME280;396;52.558;13.188;2023-03-03T04:57:38;101749.06;;;0.29;100.00
829;BME280;396;52.558;13.188;2023-03-03T05:00:06;101743.09;;;0.20;100.00
829;BME280;396;52.558;13.188;2023-03-03T05:02:34;101737.56;;;0.21;100.00
829;BME280;396;52.558;13.188;2023-03-03T05:05:01;101736.34;;;0.24;100.00
829;BME280;396;52.558;13.188;2023-03-03T05:07:27;101736.56;;;0.29;100.00
829;BME280;396;52.558;13.188;2023-03-03T05:09:54;101727.13;;;0.27;100.00
829;BME280;396;52.558;13.188;2023-03-03T05:12:20;101734.72;;;0.30;100.00
829;BME280;396;52.558;13.188;2023-03-03T05:14:47;101726.31;;;0.19;100.00
829;BME280;396;52.558;13.188;2023-03-03T05:17:14;101723.25;;;0.22;100.00
829;BME280;396;52.558;13.188;2023-03-03T05:19:42;101725.47;;;0.12;100.00
829;BME280;396;52.558;13.188;2023-03-03T05:22:08;101718.72;;;0.10;100.00
829;BME280;396;52.558;13.188;2023-03-03T05:24:35;101725.91;;;0.09;100.00
829;BME280;396;52.558;13.188;2023-03-03T05:27:02;101726.28;;;0.13;100.00
829;BME280;396;52.558;13.188;2023-03-03T05:29:30;101732.66;;;0.05;100.00
829;BME280;396;52.558;13.188;2023-03-03T05:31:57;101732.66;;;0.05;100.00
829;BME280;396;52.558;13.188;2023-03-03T05:34:24;101734.28;;;0.06;100.00
829;BME280;396;52.558;13.188;2023-03-03T05:36:52;101740.81;;;0.04;100.00
829;BME280;396;52.558;13.188;2023-03-03T05:39:19;101751.69;;;0.02;100.00
829;BME280;396;52.558;13.188;2023-03-03T05:41:45;101756.00;;;0.10;100.00
829;BME280;396;52.558;13.188;2023-03-03T05:44:12;101751.69;;;0.09;100.00
829;BME280;396;52.558;13.188;2023-03-03T05:46:39;101758.41;;;-0.15;100.00
829;BME280;396;52.558;13.188;2023-03-03T05:49:06;101748.34;;;-0.27;100.00
829;BME280;396;52.558;13.188;2023-03-03T05:51:33;101750.63;;;-0.17;100.00
829;BME280;396;52.558;13.188;2023-03-03T05:54:01;101757.59;;;-0.09;100.00
829;BME280;396;52.558;13.188;2023-03-03T05:56:27;101757.63;;;0.04;100.00
829;BME280;396;52.558;13.188;2023-03-03T05:58:54;101758.47;;;0.11;100.00
829;BME280;396;52.558;13.188;2023-03-03T06:01:21;101763.56;;;0.13;100.00
829;BME280;396;52.558;13.188;2023-03-03T06:03:47;101760.88;;;-0.01;100.00
829;BME280;396;52.558;13.188;2023-03-03T06:06:14;101760.28;;;0.04;100.00
829;BME280;396;52.558;13.188;2023-03-03T06:08:41;101762.56;;;0.07;100.00
829;BME280;396;52.558;13.188;2023-03-03T06:11:09;101759.06;;;0.07;100.00
829;BME280;396;52.558;13.188;2023-03-03T06:13:37;101764.19;;;0.02;100.00
829;BME280;396;52.558;13.188;2023-03-03T06:16:04;101765.44;;;0.12;100.00
829;BME280;396;52.558;13.188;2023-03-03T06:18:31;101763.56;;;0.13;100.00
829;BME280;396;52.558;13.188;2023-03-03T06:20:57;101769.34;;;0.10;100.00
829;BME280;396;52.558;13.188;2023-03-03T06:23:24;101777.94;;;0.12;100.00
829;BME280;396;52.558;13.188;2023-03-03T06:25:50;101776.06;;;0.12;100.00
829;BME280;396;52.558;13.188;2023-03-03T06:28:19;101773.63;;;0.11;100.00
829;BME280;396;52.558;13.188;2023-03-03T06:30:45;101776.50;;;0.16;100.00
829;BME280;396;52.558;13.188;2023-03-03T06:33:12;101780.38;;;0.13;100.00
829;BME280;396;52.558;13.188;2023-03-03T06:35:39;101782.03;;;0.14;100.00
829;BME280;396;52.558;13.188;2023-03-03T06:38:05;101784.72;;;0.14;100.00
829;BME280;396;52.558;13.188;2023-03-03T06:40:32;101786.94;;;0.17;100.00
829;BME280;396;52.558;13.188;2023-03-03T06:42:58;101788.38;;;0.13;100.00
829;BME280;396;52.558;13.188;2023-03-03T06:45:28;101782.00;;;0.01;100.00
829;BME280;396;52.558;13.188;2023-03-03T06:47:54;101782.22;;;0.06;100.00
829;BME280;396;52.558;13.188;2023-03-03T06:50:21;101782.47;;;0.18;100.00
829;BME280;396;52.558;13.188;2023-03-03T06:52:47;101777.72;;;0.27;100.00
829;BME280;396;52.558;13.188;2023-03-03T06:55:19;101782.47;;;0.24;100.00
829;BME280;396;52.558;13.188;2023-03-03T06:57:46;101793.09;;;0.11;100.00
829;BME280;396;52.558;13.188;2023-03-03T07:00:16;101800.69;;;0.14;100.00
829;BME280;396;52.558;13.188;2023-03-03T07:02:46;101810.91;;;0.17;100.00
829;BME280;396;52.558;13.188;2023-03-03T07:05:15;101815.03;;;0.20;100.00
829;BME280;396;52.558;13.188;2023-03-03T07:07:43;101819.38;;;0.28;100.00
829;BME280;396;52.558;13.188;2023-03-03T07:10:19;101813.00;;;0.35;100.00
829;BME280;396;52.558;13.188;2023-03-03T07:12:47;101812.59;;;0.38;100.00
829;BME280;396;52.558;13.188;2023-03-03T07:15:16;101829.00;;;0.42;100.00
829;BME280;396;52.558;13.188;2023-03-03T07:17:47;101819.19;;;0.42;100.00
829;BME280;396;52.558;13.188;2023-03-03T07:20:19;101823.69;;;0.55;100.00
829;BME280;396;52.558;13.188;2023-03-03T07:22:46;101821.25;;;0.40;100.00
829;BME280;396;52.558;13.188;2023-03-03T07:25:28;101820.63;;;0.45;100.00
829;BME280;396;52.558;13.188;2023-03-03T07:27:59;101821.25;;;0.40;100.00
829;BME280;396;52.558;13.188;2023-03-03T07:30:32;101819.16;;;0.29;100.00
829;BME280;396;52.558;13.188;2023-03-03T07:33:00;101827.56;;;0.33;100.00
829;BME280;396;52.558;13.188;2023-03-03T07:35:35;101829.63;;;0.37;100.00
829;BME280;396;52.558;13.188;2023-03-03T07:38:22;101827.31;;;0.14;100.00
829;BME280;396;52.558;13.188;2023-03-03T07:40:51;101836.31;;;0.13;100.00
829;BME280;396;52.558;13.188;2023-03-03T07:43:26;101835.09;;;0.16;100.00
829;BME280;396;52.558;13.188;2023-03-03T07:45:58;101835.97;;;0.30;100.00
829;BME280;396;52.558;13.188;2023-03-03T07:48:34;101832.66;;;0.21;100.00
829;BME280;396;52.558;13.188;2023-03-03T07:51:04;101837.00;;;0.29;100.00
829;BME280;396;52.558;13.188;2023-03-03T07:53:33;101842.94;;;0.44;100.00
829;BME280;396;52.558;13.188;2023-03-03T07:56:03;101847.47;;;0.57;100.00
829;BME280;396;52.558;13.188;2023-03-03T07:58:36;101834.38;;;0.68;100.00
829;BME280;396;52.558;13.188;2023-03-03T08:01:37;101844.84;;;0.77;100.00
829;BME280;396;52.558;13.188;2023-03-03T08:04:21;101832.94;;;0.79;100.00
829;BME280;396;52.558;13.188;2023-03-03T08:06:54;101843.22;;;0.89;100.00
829;BME280;396;52.558;13.188;2023-03-03T08:09:43;101846.06;;;0.81;100.00
829;BME280;396;52.558;13.188;2023-03-03T08:12:42;101852.41;;;0.80;100.00
829;BME280;396;52.558;13.188;2023-03-03T08:15:18;101841.97;;;0.91;100.00
829;BME280;396;52.558;13.188;2023-03-03T08:17:46;101841.34;;;0.96;100.00
829;BME280;396;52.558;13.188;2023-03-03T08:20:42;101842.97;;;0.97;100.00
829;BME280;396;52.558;13.188;2023-03-03T08:23:10;101842.19;;;1.03;100.00
829;BME280;396;52.558;13.188;2023-03-03T08:25:37;101835.59;;;1.12;100.00
829;BME280;396;52.558;13.188;2023-03-03T08:28:03;101840.09;;;1.18;100.00
829;BME280;396;52.558;13.188;2023-03-03T08:30:30;101827.16;;;1.22;100.00
829;BME280;396;52.558;13.188;2023-03-03T08:32:57;101834.13;;;1.30;100.00
829;BME280;396;52.558;13.188;2023-03-03T08:35:23;101831.88;;;1.26;100.00
829;BME280;396;52.558;13.188;2023-03-03T08:37:52;101838.81;;;1.41;100.00
829;BME280;396;52.558;13.188;2023-03-03T08:40:19;101844.97;;;1.48;100.00
829;BME280;396;52.558;13.188;2023-03-03T08:42:46;101843.13;;;1.55;100.00
829;BME280;396;52.558;13.188;2023-03-03T08:45:13;101835.09;;;1.48;100.00
829;BME280;396;52.558;13.188;2023-03-03T08:47:40;101840.47;;;1.42;100.00
829;BME280;396;52.558;13.188;2023-03-03T08:50:08;101843.72;;;1.50;100.00
829;BME280;396;52.558;13.188;2023-03-03T08:52:34;101849.28;;;1.56;100.00
829;BME280;396;52.558;13.188;2023-03-03T08:55:03;101853.16;;;1.53;100.00
829;BME280;396;52.558;13.188;2023-03-03T08:57:29;101841.66;;;1.52;100.00
829;BME280;396;52.558;13.188;2023-03-03T08:59:56;101838.78;;;1.54;100.00
829;BME280;396;52.558;13.188;2023-03-03T09:02:22;101848.63;;;1.60;100.00
829;BME280;396;52.558;13.188;2023-03-03T09:04:49;101836.91;;;1.61;100.00
829;BME280;396;52.558;13.188;2023-03-03T09:07:16;101829.72;;;1.62;100.00
829;BME280;396;52.558;13.188;2023-03-03T09:09:42;101843.63;;;1.77;100.00
829;BME280;396;52.558;13.188;2023-03-03T09:12:15;101837.47;;;1.83;100.00
829;BME280;396;52.558;13.188;2023-03-03T09:14:43;101836.19;;;1.86;100.00
829;BME280;396;52.558;13.188;2023-03-03T09:17:23;101839.91;;;1.85;100.00
829;BME280;396;52.558;13.188;2023-03-03T09:19:50;101839.91;;;1.85;100.00
829;BME280;396;52.558;13.188;2023-03-03T09:22:19;101829.03;;;1.86;100.00
829;BME280;396;52.558;13.188;2023-03-03T09:24:49;101830.25;;;1.84;100.00
829;BME280;396;52.558;13.188;2023-03-03T09:27:26;101830.44;;;1.89;100.00
829;BME280;396;52.558;13.188;2023-03-03T09:29:53;101830.22;;;1.90;100.00
829;BME280;396;52.558;13.188;2023-03-03T09:32:34;101831.84;;;1.98;100.00
829;BME280;396;52.558;13.188;2023-03-03T09:35:26;101833.22;;;2.07;100.00
829;BME280;396;52.558;13.188;2023-03-03T09:38:00;101836.06;;;2.19;100.00
829;BME280;396;52.558;13.188;2023-03-03T09:40:43;101833.78;;;2.22;98.79
829;BME280;396;52.558;13.188;2023-03-03T09:43:20;101837.03;;;2.24;98.97
829;BME280;396;52.558;13.188;2023-03-03T09:45:58;101837.66;;;2.26;99.57
829;BME280;396;52.558;13.188;2023-03-03T09:48:46;101847.47;;;2.33;98.52
829;BME280;396;52.558;13.188;2023-03-03T09:51:30;101838.88;;;2.31;98.10
829;BME280;396;52.558;13.188;2023-03-03T09:54:14;101835.97;;;2.32;98.52
829;BME280;396;52.558;13.188;2023-03-03T09:56:47;101838.03;;;2.30;97.75
829;BME280;396;52.558;13.188;2023-03-03T09:59:30;101840.13;;;2.28;98.20
829;BME280;396;52.558;13.188;2023-03-03T10:02:18;101840.94;;;2.28;97.86
829;BME280;396;52.558;13.188;2023-03-03T10:05:11;101841.91;;;2.34;98.40
829;BME280;396;52.558;13.188;2023-03-03T10:07:45;101837.03;;;2.31;98.64
829;BME280;396;52.558;13.188;2023-03-03T10:10:28;101840.09;;;2.35;99.22
829;BME280;396;52.558;13.188;2023-03-03T10:13:07;101842.28;;;2.44;99.37
829;BME280;396;52.558;13.188;2023-03-03T10:15:42;101837.28;;;2.55;99.10
829;BME280;396;52.558;13.188;2023-03-03T10:18:22;101841.81;;;2.54;99.16
829;BME280;396;52.558;13.188;2023-03-03T10:21:01;101842.75;;;2.66;98.24
829;BME280;396;52.558;13.188;2023-03-03T10:23:51;101835.75;;;2.65;97.88
829;BME280;396;52.558;13.188;2023-03-03T10:26:25;101839.84;;;2.68;97.52
829;BME280;396;52.558;13.188;2023-03-03T10:29:03;101832.88;;;2.67;97.50
829;BME280;396;52.558;13.188;2023-03-03T10:31:44;101827.63;;;2.53;98.20
829;BME280;396;52.558;13.188;2023-03-03T10:34:26;101833.78;;;2.54;99.02
829;BME280;396;52.558;13.188;2023-03-03T10:37:03;101836.19;;;2.62;99.54
829;BME280;396;52.558;13.188;2023-03-03T10:39:47;101835.72;;;2.72;99.07
829;BME280;396;52.558;13.188;2023-03-03T10:42:35;101831.34;;;2.77;99.10
829;BME280;396;52.558;13.188;2023-03-03T10:45:30;101831.06;;;2.86;98.66
829;BME280;396;52.558;13.188;2023-03-03T10:48:15;101834.06;;;2.96;97.79
829;BME280;396;52.558;13.188;2023-03-03T10:50:50;101840.34;;;3.08;97.33
829;BME280;396;52.558;13.188;2023-03-03T10:53:22;101839.22;;;2.97;97.26
829;BME280;396;52.558;13.188;2023-03-03T10:56:06;101840.84;;;2.98;96.92
829;BME280;396;52.558;13.188;2023-03-03T10:58:45;101839.75;;;3.06;97.62
829;BME280;396;52.558;13.188;2023-03-03T11:01:20;101847.81;;;2.99;96.42
829;BME280;396;52.558;13.188;2023-03-03T11:04:07;101843.44;;;3.05;96.19
829;BME280;396;52.558;13.188;2023-03-03T11:06:42;101842.84;;;3.03;96.48
829;BME280;396;52.558;13.188;2023-03-03T11:09:19;101849.03;;;3.03;96.32
829;BME280;396;52.558;13.188;2023-03-03T11:11:58;101847.13;;;3.11;96.08
829;BME280;396;52.558;13.188;2023-03-03T11:14:33;101846.88;;;3.12;96.02
829;BME280;396;52.558;13.188;2023-03-03T11:17:07;101840.09;;;3.10;96.69
829;BME280;396;52.558;13.188;2023-03-03T11:19:52;101832.59;;;3.18;96.25
829;BME280;396;52.558;13.188;2023-03-03T11:22:35;101837.38;;;3.16;96.45
829;BME280;396;52.558;13.188;2023-03-03T11:25:14;101833.22;;;3.20;96.13
829;BME280;396;52.558;13.188;2023-03-03T11:27:59;101830.69;;;3.25;96.04
829;BME280;396;52.558;13.188;2023-03-03T11:30:42;101833.16;;;3.27;95.54
829;BME280;396;52.558;13.188;2023-03-03T11:33:19;101833.53;;;3.31;95.96
829;BME280;396;52.558;13.188;2023-03-03T11:35:53;101824.63;;;3.37;95.74
829;BME280;396;52.558;13.188;2023-03-03T11:38:41;101828.84;;;3.44;95.88
829;BME280;396;52.558;13.188;2023-03-03T11:41:18;101817.16;;;3.39;96.28
829;BME280;396;52.558;13.188;2023-03-03T11:43:50;101820.75;;;3.33;96.19
829;BME280;396;52.558;13.188;2023-03-03T11:46:21;101819.94;;;3.32;96.33
829;BME280;396;52.558;13.188;2023-03-03T11:48:55;101825.66;;;3.36;95.93
829;BME280;396;52.558;13.188;2023-03-03T11:51:33;101825.66;;;3.36;96.13
829;BME280;396;52.558;13.188;2023-03-03T11:54:04;101826.41;;;3.43;96.27
829;BME280;396;52.558;13.188;2023-03-03T11:56:39;101816.50;;;3.43;95.95
829;BME280;396;52.558;13.188;2023-03-03T11:59:23;101815.97;;;3.53;96.02
829;BME280;396;52.558;13.188;2023-03-03T12:01:56;101809.28;;;3.62;95.69
829;BME280;396;52.558;13.188;2023-03-03T12:04:26;101806.81;;;3.79;95.25
829;BME280;396;52.558;13.188;2023-03-03T12:07:12;101811.34;;;3.78;93.37
829;BME280;396;52.558;13.188;2023-03-03T12:09:48;101805.25;;;3.71;93.84
829;BME280;396;52.558;13.188;2023-03-03T12:12:21;101798.56;;;3.62;94.81
829;BME280;396;52.558;13.188;2023-03-03T12:14:58;101803.91;;;3.62;95.00
829;BME280;396;52.558;13.188;2023-03-03T12:17:38;101791.84;;;3.71;94.54
829;BME280;396;52.558;13.188;2023-03-03T12:20:17;101784.28;;;3.68;94.63
829;BME280;396;52.558;13.188;2023-03-03T12:23:00;101783.22;;;3.69;94.66
829;BME280;396;52.558;13.188;2023-03-03T12:25:35;101776.69;;;3.65;95.60
829;BME280;396;52.558;13.188;2023-03-03T12:28:07;101770.13;;;3.61;95.29
829;BME280;396;52.558;13.188;2023-03-03T12:33:50;101769.69;;;3.64;94.78
829;BME280;396;52.558;13.188;2023-03-03T12:36:28;101774.16;;;3.70;94.90
829;BME280;396;52.558;13.188;2023-03-03T12:39:05;101770.75;;;3.63;95.59
829;BME280;396;52.558;13.188;2023-03-03T12:41:43;101768.41;;;3.67;96.35
829;BME280;396;52.558;13.188;2023-03-03T12:44:17;101759.38;;;3.79;96.40
829;BME280;396;52.558;13.188;2023-03-03T12:46:54;101758.50;;;3.86;96.00
829;BME280;396;52.558;13.188;2023-03-03T12:49:34;101754.78;;;3.87;94.83
829;BME280;396;52.558;13.188;2023-03-03T12:52:10;101754.66;;;3.93;94.84
829;BME280;396;52.558;13.188;2023-03-03T12:54:53;101768.44;;;3.97;94.61
829;BME280;396;52.558;13.188;2023-03-03T12:57:30;101764.00;;;3.91;94.63
829;BME280;396;52.558;13.188;2023-03-03T13:00:14;101757.00;;;3.90;94.84
829;BME280;396;52.558;13.188;2023-03-03T13:02:49;101745.81;;;3.93;95.07
829;BME280;396;52.558;13.188;2023-03-03T13:05:24;101744.75;;;3.94;95.05
829;BME280;396;52.558;13.188;2023-03-03T13:08:14;101751.53;;;3.96;95.26
829;BME280;396;52.558;13.188;2023-03-03T13:10:51;101744.34;;;4.09;94.98
829;BME280;396;52.558;13.188;2023-03-03T13:13:26;101746.22;;;4.08;93.69
829;BME280;396;52.558;13.188;2023-03-03T13:16:01;101746.03;;;3.91;94.72
829;BME280;396;52.558;13.188;2023-03-03T13:18:39;101744.47;;;3.72;95.88
829;BME280;396;52.558;13.188;2023-03-03T13:21:15;101736.69;;;3.82;95.67
829;BME280;396;52.558;13.188;2023-03-03T13:23:49;101735.56;;;3.90;95.73
829;BME280;396;52.558;13.188;2023-03-03T13:26:24;101735.81;;;4.00;95.32
829;BME280;396;52.558;13.188;2023-03-03T13:28:58;101732.09;;;4.01;94.94
829;BME280;396;52.558;13.188;2023-03-03T13:31:32;101738.50;;;4.12;94.12
829;BME280;396;52.558;13.188;2023-03-03T13:34:00;101741.81;;;4.14;94.38
829;BME280;396;52.558;13.188;2023-03-03T13:36:29;101727.72;;;4.18;93.47
829;BME280;396;52.558;13.188;2023-03-03T13:38:59;101725.34;;;4.10;94.26
829;BME280;396;52.558;13.188;2023-03-03T13:41:37;101733.03;;;4.07;94.62
829;BME280;396;52.558;13.188;2023-03-03T13:44:10;101723.28;;;4.12;94.80
829;BME280;396;52.558;13.188;2023-03-03T13:46:47;101714.88;;;4.20;94.59
829;BME280;396;52.558;13.188;2023-03-03T13:49:30;101717.22;;;4.28;94.51
829;BME280;396;52.558;13.188;2023-03-03T13:52:01;101712.78;;;4.22;94.21